TFM - Tactical Decision Aid
ID: Runway Winds: CIG/VIS Threshold:

KCVG - Cincinnati Intl, KY, US

Updated at: 0809 UTC 25 Apr 2019
Latest TAF at: 0630 UTC 25 Apr 2019

TAF Board

Time0752Z 25/09Z 25/10Z 25/11Z 25/12Z 25/13Z 25/14Z 25/15Z 25/16Z 25/17Z 25/18Z 25/19Z 25/20Z 25/21Z>>
Type OBS PRVL PRVL PRVL PRVL PRVL PRVL PRVL PRVL PRVL PRVL PRVL PRVL PRVL
VIS 5 5 5 >6 >6 >6 >6 >6 >6 5 5 5 5 5
CIG 90 40 40 25 25 25 35 35 35 40 40 40 40 35
Cover OVC OVC OVC OVC OVC OVC OVC OVC OVC OVC OVC OVC OVC OVC
FltCat MVFR MVFR MVFR MVFR MVFR MVFR VFR VFR VFR MVFR MVFR MVFR MVFR MVFR
WX -RA BR -SHRA -SHRA VCSH VCSH VCSH VCSH VCSH VCSH -SHRA -SHRA -SHRA -SHRA -SHRA VCTS
WDir 180 160 160 160 160 160 170 170 170 200 200 200 200 200
WSpd 6 5 5 7 7 7 8 8 8 8 8 8 8 9
WGst -- -- -- -- -- -- -- -- -- -- -- -- -- --

TDA Impact Legend

  None Marginal Slight Moderate High
Visibility (sm) >5 3≤X≤5 1≤X<3 0.5≤X<1 <0.5
Ceiling (100 ft) >30 10≤X≤30 4≤X<10 2≤X<4 <2
Wind Speed (kt) <15 15≤X<25 25≤X<30 ≥30
Wind Gust (kt) <15 15≤X<25 25≤X<35 ≥35
Weather No Wx Reported VCTS -TS,-FZRA TS,FZRA +TS,+FZRA
TAF
KCVG 250630Z 2507/2612 16003KT P6SM -RA SCT005 OVC080
  FM250800 16005KT 5SM -SHRA SCT025 OVC040
  FM251100 16007KT P6SM VCSH OVC025
  FM251400 17008KT P6SM VCSH OVC035
  FM251700 20008KT 5SM -SHRA OVC040
  FM252100 20009KT 5SM -SHRA VCTS OVC035CB
  FM260100 19008KT 4SM -SHRA OVC025
  FM260600 24013KT 3SM -SHRA OVC015
  FM260900 31014G21KT 5SM -SHRA OVC009


METAR
KCVG 250752Z 18006KT 5SM -RA BR OVC090 14/14 A2983 RMK AO2 RAB0653 SLP095 P0009 T01440139
KCVG 250652Z 00000KT 6SM BR FEW045 BKN090 OVC110 14/13 A2984 RMK AO2 RAB10E23 SLP100 P0000 T01440133
KCVG 250552Z 15006KT 7SM FEW005 SCT065 OVC085 15/14 A2986 RMK AO2 RAE36 SLP105 P0001 60015 T01500139 10194 20133 56017
KCVG 250512Z 15004KT 6SM -RA BR BKN005 OVC095 14/13 A2987 RMK AO2 P0001 T01440133
KCVG 250452Z 16003KT 7SM -RA FEW007 OVC080 14/13 A2987 RMK AO2 SLP109 P0000 T01440133 402110100

Radar Display
Forecast Discussion